Time;durP1;ratioP1;P1;durP2;ratioP2;P2;SDS_P1;SDS_P2;PMS_P1;PMS_P2;Temp;Humidity;BMP_temperature;BMP_pressure;BME280_temperature;BME280_humidity;BME280_pressure;Samples;Min_cycle;Max_cycle;Signal;HPM_P1;HPM_P2
2022/02/05 00:01:17;;;;;;;714.10;670.30;;;3.60;99.90;;;;;;5070319;28;20443;-81
2022/02/05 00:03:54;;;;;;;710.00;666.63;;;3.60;99.90;;;;;;5083906;28;20446;-80
2022/02/05 00:06:31;;;;;;;718.80;674.13;;;3.60;99.90;;;;;;5074736;28;20541;-82
2022/02/05 00:09:07;;;;;;;724.50;678.73;;;3.40;99.90;;;;;;5062680;28;20474;-82
2022/02/05 00:20:29;;;;;;;716.73;672.37;;;3.50;99.90;;;;;;5083914;28;20461;-82
2022/02/05 00:39:57;;;;;;;692.77;654.53;;;3.70;99.90;;;;;;5062447;28;20808;-82
2022/02/05 00:42:38;;;;;;;697.93;659.00;;;3.70;99.90;;;;;;5078171;28;20445;-82
2022/02/05 00:45:11;;;;;;;693.80;655.20;;;3.60;99.90;;;;;;5083528;28;20970;-82
2022/02/05 00:47:42;;;;;;;674.70;639.20;;;3.50;99.90;;;;;;5066857;28;20443;-82
2022/02/05 00:50:31;;;;;;;;;;;;;;;;;;;;;
2022/02/05 00:53:11;;;;;;;669.13;635.53;;;3.70;99.90;;;;;;5082244;28;20451;-82
2022/02/05 00:55:47;;;;;;;658.40;625.70;;;3.60;99.90;;;;;;5082604;28;20466;-82
2022/02/05 00:58:16;;;;;;;653.73;621.23;;;3.60;99.90;;;;;;5082796;28;20450;-82
2022/02/05 01:00:48;;;;;;;638.63;608.40;;;3.60;99.90;;;;;;5082091;28;20472;-82
2022/02/05 01:03:20;;;;;;;638.60;608.93;;;3.70;99.90;;;;;;5082919;28;20494;-82
2022/02/05 01:09:26;;;;;;;638.90;609.80;;;3.60;99.90;;;;;;5073572;28;20451;-81
2022/02/05 01:12:18;;;;;;;;;;;;;;;;;;;;;
2022/02/05 01:14:57;;;;;;;630.97;602.07;;;3.60;99.90;;;;;;5073069;28;20546;-81
2022/02/05 01:17:42;;;;;;;630.40;602.30;;;3.70;99.90;;;;;;5067636;28;20451;-82
2022/02/05 01:23:23;;;;;;;548.33;525.73;;;3.80;99.90;;;;;;5061075;28;20819;-82
2022/02/05 01:26:03;;;;;;;528.17;507.03;;;4.00;99.90;;;;;;5061511;28;20490;-82
2022/02/05 01:28:33;;;;;;;531.53;511.10;;;4.00;99.90;;;;;;5061330;28;20451;-82
2022/02/05 01:31:00;;;;;;;528.73;507.93;;;4.00;99.90;;;;;;5061996;28;20459;-82
2022/02/05 01:33:43;;;;;;;515.57;495.90;;;3.90;99.90;;;;;;5061126;28;20553;-82
2022/02/05 01:39:29;;;;;;;513.37;493.83;;;3.80;99.90;;;;;;5061289;28;20457;-83
2022/02/05 01:48:58;;;;;;;483.23;465.03;;;4.00;99.90;;;;;;5059277;28;20969;-82
2022/02/05 01:51:57;;;;;;;;;;;;;;;;;;;;;
2022/02/05 01:57:23;;;;;;;437.40;421.07;;;4.00;99.90;;;;;;5076621;28;20447;-83
2022/02/05 02:14:41;;;;;;;411.20;396.60;;;3.90;99.90;;;;;;5058013;28;20479;-83
2022/02/05 02:20:25;;;;;;;464.17;447.03;;;3.80;99.90;;;;;;5036031;28;20446;-83
2022/02/05 02:23:25;;;;;;;469.30;451.90;;;3.70;99.90;;;;;;5075295;28;20496;-82
2022/02/05 02:26:15;;;;;;;503.80;484.37;;;3.70;99.90;;;;;;5055972;28;20475;-83
2022/02/05 02:29:04;;;;;;;524.23;503.10;;;3.60;99.90;;;;;;5055450;28;20952;-83
2022/02/05 02:31:37;;;;;;;519.77;500.03;;;3.50;99.90;;;;;;5055887;28;20455;-83
2022/02/05 02:34:20;;;;;;;515.13;495.60;;;3.60;99.90;;;;;;5054601;28;21053;-83
2022/02/05 02:36:54;;;;;;;501.57;483.00;;;3.60;99.90;;;;;;5055584;28;20443;-83
2022/02/05 02:39:58;;;;;;;507.87;489.03;;;3.60;99.90;;;;;;5054945;28;20483;-83
2022/02/05 02:42:44;;;;;;;502.20;482.77;;;3.70;99.90;;;;;;5065859;28;20567;-83
2022/02/05 02:45:13;;;;;;;513.27;493.60;;;3.60;99.90;;;;;;5074823;28;21032;-83
2022/02/05 02:47:43;;;;;;;491.37;472.77;;;3.60;99.90;;;;;;5061337;28;20466;-83
2022/02/05 02:50:31;;;;;;;498.53;480.23;;;3.70;99.90;;;;;;5053884;28;20451;-83
2022/02/05 03:02:11;;;;;;;483.57;465.37;;;3.60;99.90;;;;;;5066451;28;20604;-82
2022/02/05 03:05:07;;;;;;;;;;;;;;;;;;;;;
2022/02/05 03:07:41;;;;;;;501.00;481.90;;;3.60;99.90;;;;;;5075503;28;20451;-82
2022/02/05 03:10:28;;;;;;;520.30;500.60;;;3.60;99.90;;;;;;5077751;28;20453;-82
2022/02/05 03:13:16;;;;;;;565.70;543.47;;;3.50;99.90;;;;;;5077821;28;20815;-83
2022/02/05 03:19:00;;;;;;;;;;;;;;;;;;;;;
2022/02/05 03:21:32;;;;;;;552.00;530.63;;;3.40;99.90;;;;;;5056700;28;20448;-83
2022/02/05 03:27:04;;;;;;;567.77;545.30;;;3.40;99.90;;;;;;5052735;28;20466;-82
2022/02/05 03:30:07;;;;;;;542.43;521.33;;;3.30;99.90;;;;;;5058354;28;20888;-82
2022/02/05 03:33:13;;;;;;;560.87;537.97;;;3.40;99.90;;;;;;5057669;28;20454;-82
2022/02/05 03:36:19;;;;;;;573.97;550.57;;;3.40;99.90;;;;;;5051616;28;20483;-82
2022/02/05 03:41:53;;;;;;;576.00;551.90;;;3.20;99.90;;;;;;5057487;28;20457;-82
2022/02/05 03:44:32;;;;;;;579.97;555.13;;;3.30;99.90;;;;;;5058133;28;20475;-82
2022/02/05 03:47:33;;;;;;;;;;;;;;;;;;;;;
2022/02/05 03:56:00;;;;;;;627.17;599.50;;;3.20;99.90;;;;;;5058084;28;20490;-82
2022/02/05 03:58:36;;;;;;;601.40;575.70;;;3.20;99.90;;;;;;5076661;28;20454;-82
2022/02/05 04:01:42;;;;;;;;;;;;;;;;;;;;;
2022/02/05 04:04:10;;;;;;;618.10;590.90;;;3.10;99.90;;;;;;5068139;28;20474;-81
2022/02/05 04:06:41;;;;;;;610.83;583.73;;;3.20;99.90;;;;;;5077470;28;20494;-82
2022/02/05 04:09:30;;;;;;;620.90;593.00;;;3.10;99.90;;;;;;5080745;28;20427;-82
2022/02/05 04:15:55;;;;;;;619.70;592.33;;;3.10;99.90;;;;;;5079304;28;20450;-82
2022/02/05 04:17:34;;;;;;;585.97;561.27;;;3.10;99.90;;;;;;5070957;28;20466;-82
2022/02/05 04:20:01;;;;;;;591.20;566.10;;;3.20;99.90;;;;;;5065257;28;20452;-82
2022/02/05 04:22:30;;;;;;;565.80;542.80;;;3.20;99.90;;;;;;5062329;28;20543;-82
2022/02/05 04:25:01;;;;;;;560.17;537.67;;;3.20;99.90;;;;;;5079124;28;20466;-82
2022/02/05 04:27:50;;;;;;;519.93;499.43;;;3.40;99.90;;;;;;5062085;28;20543;-82
2022/02/05 04:30:34;;;;;;;478.77;459.43;;;3.30;99.90;;;;;;5061778;28;20451;-82
2022/02/05 04:33:03;;;;;;;460.93;443.83;;;3.30;99.90;;;;;;5079300;28;20447;-81
2022/02/05 04:35:30;;;;;;;469.90;451.90;;;3.40;99.90;;;;;;5078968;28;20477;-81
2022/02/05 04:37:59;;;;;;;476.83;459.60;;;3.30;99.90;;;;;;5071598;28;20546;-80
2022/02/05 04:40:46;;;;;;;489.20;469.70;;;3.20;99.90;;;;;;5075300;28;20504;-81
2022/02/05 04:43:35;;;;;;;513.93;494.30;;;3.10;99.90;;;;;;5079614;28;20504;-81
2022/02/05 04:46:42;;;;;;;555.07;533.60;;;3.00;99.90;;;;;;5078378;28;20558;-81
2022/02/05 04:55:02;;;;;;;596.27;570.97;;;3.00;99.90;;;;;;5033958;28;20476;-81
2022/02/05 04:57:42;;;;;;;589.67;564.77;;;2.90;99.90;;;;;;5057653;28;20436;-80
2022/02/05 05:06:30;;;;;;;609.33;582.20;;;2.90;99.90;;;;;;5071643;28;20482;-81
2022/02/05 05:09:16;;;;;;;614.33;586.57;;;3.00;99.90;;;;;;5077075;28;20617;-81
2022/02/05 05:12:22;;;;;;;609.33;582.27;;;2.90;99.90;;;;;;5058224;28;20987;-81
2022/02/05 05:20:44;;;;;;;;;;;;;;;;;;;;;
2022/02/05 05:23:17;;;;;;;666.37;633.30;;;2.70;99.90;;;;;;5059918;28;20500;-81
2022/02/05 05:25:44;;;;;;;673.27;639.40;;;2.80;99.90;;;;;;5077739;28;20478;-79
2022/02/05 05:28:13;;;;;;;687.30;651.90;;;2.70;99.90;;;;;;5067603;28;20463;-81
2022/02/05 05:30:46;;;;;;;685.83;650.07;;;2.50;99.90;;;;;;5059088;28;20451;-82
2022/02/05 05:33:17;;;;;;;703.27;663.10;;;2.50;99.90;;;;;;5058878;28;20455;-82
2022/02/05 05:35:59;;;;;;;701.77;662.57;;;2.50;99.90;;;;;;5057012;28;20471;-82
2022/02/05 05:38:26;;;;;;;707.10;667.20;;;2.50;99.90;;;;;;5057742;28;20447;-82
2022/02/05 05:41:08;;;;;;;700.17;660.37;;;2.70;99.90;;;;;;5057275;28;20454;-82
2022/02/05 05:43:50;;;;;;;698.93;660.00;;;2.70;99.90;;;;;;5060587;28;20451;-83
2022/02/05 05:46:42;;;;;;;698.83;660.30;;;2.80;99.90;;;;;;5075818;28;20471;-83
2022/02/05 05:49:45;;;;;;;699.80;661.37;;;2.80;99.90;;;;;;5063206;28;20456;-83
2022/02/05 05:52:24;;;;;;;690.77;652.57;;;2.80;99.90;;;;;;5074156;28;20993;-82
2022/02/05 05:54:51;;;;;;;648.07;614.97;;;2.80;99.90;;;;;;5070654;28;20474;-82
2022/02/05 05:57:33;;;;;;;658.53;625.83;;;2.90;99.90;;;;;;5077736;28;20807;-81
2022/02/05 06:00:00;;;;;;;660.70;627.97;;;3.00;99.90;;;;;;5062654;28;20443;-81
2022/02/05 06:02:55;;;;;;;666.10;631.90;;;2.90;99.90;;;;;;5056319;28;20546;-82
2022/02/05 06:05:22;;;;;;;649.67;617.20;;;2.80;99.90;;;;;;5056490;28;20467;-82
2022/02/05 06:07:49;;;;;;;615.73;586.63;;;3.00;99.90;;;;;;5061768;28;20899;-82
2022/02/05 06:10:25;;;;;;;599.70;572.50;;;3.20;99.90;;;;;;5075880;28;20464;-81
2022/02/05 06:12:55;;;;;;;618.30;588.80;;;3.10;99.90;;;;;;5076344;28;20584;-81
2022/02/05 06:15:26;;;;;;;599.03;571.20;;;3.30;99.90;;;;;;5077880;28;20474;-81
2022/02/05 06:18:15;;;;;;;572.73;547.90;;;3.30;99.90;;;;;;5061969;28;20872;-82
2022/02/05 06:21:05;;;;;;;562.30;538.53;;;3.40;99.90;;;;;;5067148;28;20458;-82
2022/02/05 06:23:32;;;;;;;565.30;541.20;;;3.30;99.90;;;;;;5071637;28;20460;-82
2022/02/05 06:26:06;;;;;;;538.90;516.67;;;3.30;99.90;;;;;;5077271;28;20553;-82
2022/02/05 06:28:38;;;;;;;538.10;515.70;;;3.30;99.90;;;;;;5058635;28;20469;-82
2022/02/05 06:31:05;;;;;;;546.43;524.10;;;3.30;99.90;;;;;;5071812;28;20861;-82
2022/02/05 06:33:36;;;;;;;554.00;530.90;;;3.40;99.90;;;;;;5059921;28;20504;-82
2022/02/05 06:36:04;;;;;;;539.90;517.50;;;3.30;99.90;;;;;;5069912;28;20958;-81
2022/02/05 06:38:31;;;;;;;552.23;528.83;;;3.30;99.90;;;;;;5080759;28;20831;-81
2022/02/05 06:41:04;;;;;;;570.80;546.73;;;3.10;99.90;;;;;;5079917;28;20507;-81
2022/02/05 06:43:31;;;;;;;545.53;523.20;;;3.20;99.90;;;;;;5078192;28;20519;-81
2022/02/05 06:45:58;;;;;;;559.57;536.17;;;3.20;99.90;;;;;;5078855;28;20471;-81
2022/02/05 06:48:25;;;;;;;565.57;542.07;;;3.10;99.90;;;;;;5072640;28;20463;-80
2022/02/05 06:50:53;;;;;;;582.27;557.10;;;3.20;99.90;;;;;;5057679;28;20462;-82
2022/02/05 06:53:20;;;;;;;609.17;583.00;;;3.00;99.90;;;;;;5061907;28;20959;-81
2022/02/05 06:55:46;;;;;;;619.50;591.30;;;3.00;99.90;;;;;;5079283;28;20485;-80
2022/02/05 06:58:24;;;;;;;620.73;592.53;;;3.00;99.90;;;;;;5080227;28;20473;-80
2022/02/05 07:00:51;;;;;;;622.27;594.40;;;3.00;99.90;;;;;;5079655;28;20442;-81
2022/02/05 07:03:21;;;;;;;648.57;617.63;;;3.00;99.90;;;;;;5064263;28;20513;-81
2022/02/05 07:05:51;;;;;;;639.23;608.90;;;2.90;99.90;;;;;;5064744;28;21002;-82
2022/02/05 07:08:20;;;;;;;639.27;609.17;;;3.00;99.90;;;;;;5073163;28;20474;-81
2022/02/05 07:10:48;;;;;;;654.67;622.67;;;2.90;99.90;;;;;;5060584;28;20955;-82
2022/02/05 07:13:17;;;;;;;669.43;635.80;;;3.00;99.90;;;;;;5058475;28;20537;-82
2022/02/05 07:15:51;;;;;;;670.70;634.80;;;2.80;99.90;;;;;;5070475;28;20475;-82
2022/02/05 07:18:28;;;;;;;680.90;644.00;;;2.80;99.90;;;;;;5073316;28;20450;-82
2022/02/05 07:21:06;;;;;;;679.77;642.87;;;2.90;99.90;;;;;;5072254;28;20442;-80
2022/02/05 07:29:18;;;;;;;691.27;652.47;;;2.80;99.90;;;;;;5058498;28;20465;-82
2022/02/05 07:31:49;;;;;;;702.93;662.00;;;3.00;99.90;;;;;;5058088;28;20451;-82
2022/02/05 07:34:19;;;;;;;694.10;655.03;;;3.00;99.90;;;;;;5067954;28;20467;-83
2022/02/05 07:36:57;;;;;;;696.23;657.07;;;2.90;99.90;;;;;;5061008;28;20486;-82
2022/02/05 07:39:46;;;;;;;708.77;668.37;;;2.80;99.90;;;;;;5070795;28;20482;-82
2022/02/05 07:42:19;;;;;;;717.40;674.40;;;2.90;99.90;;;;;;5067377;28;20455;-82
2022/02/05 07:44:51;;;;;;;727.23;681.33;;;2.70;99.90;;;;;;5061275;28;20475;-81
2022/02/05 07:47:21;;;;;;;731.73;685.30;;;2.60;99.90;;;;;;5067867;28;20500;-81
2022/02/05 07:49:57;;;;;;;731.70;683.40;;;2.70;99.90;;;;;;5068022;28;20508;-82
2022/02/05 07:52:26;;;;;;;732.87;682.47;;;2.60;99.90;;;;;;5057284;28;20508;-82
2022/02/05 07:55:10;;;;;;;741.17;690.73;;;2.70;99.90;;;;;;5056964;28;20503;-82
2022/02/05 07:57:37;;;;;;;731.67;682.10;;;2.70;99.90;;;;;;5056684;28;20446;-81
2022/02/05 08:00:06;;;;;;;725.90;677.40;;;2.70;99.90;;;;;;5056486;28;20490;-82
2022/02/05 08:02:33;;;;;;;720.47;672.07;;;2.80;99.90;;;;;;5057634;28;20961;-81
2022/02/05 08:05:08;;;;;;;712.13;665.80;;;3.00;99.90;;;;;;5057130;28;20558;-82
2022/02/05 08:07:42;;;;;;;699.20;656.30;;;3.10;99.90;;;;;;5058914;28;20451;-82
2022/02/05 08:10:26;;;;;;;693.23;652.30;;;3.20;99.90;;;;;;5061718;28;20474;-81
2022/02/05 08:13:08;;;;;;;660.67;623.00;;;3.20;99.90;;;;;;5059522;28;20513;-82
2022/02/05 08:15:39;;;;;;;647.47;611.73;;;3.40;99.90;;;;;;5058892;28;20506;-81
2022/02/05 08:18:15;;;;;;;640.00;606.67;;;3.40;99.90;;;;;;5061669;28;20521;-79
2022/02/05 08:23:49;;;;;;;623.77;593.30;;;3.50;99.90;;;;;;5066468;28;20451;-82
2022/02/05 08:26:18;;;;;;;626.37;595.70;;;3.50;99.90;;;;;;5066302;28;20478;-80
2022/02/05 08:28:45;;;;;;;632.80;602.10;;;3.60;99.90;;;;;;5070139;28;20450;-81
2022/02/05 08:31:12;;;;;;;633.67;603.00;;;3.50;99.90;;;;;;5074559;28;20446;-80
2022/02/05 08:33:50;;;;;;;641.00;609.00;;;3.50;99.90;;;;;;5087691;28;20470;-80
2022/02/05 08:36:22;;;;;;;641.77;609.20;;;3.60;99.90;;;;;;5074978;28;20466;-81
2022/02/05 08:38:49;;;;;;;615.40;585.90;;;3.70;99.90;;;;;;5086355;28;20454;-80
2022/02/05 08:41:33;;;;;;;579.47;553.43;;;3.80;99.90;;;;;;5072881;28;20443;-81
2022/02/05 08:47:53;;;;;;;565.93;540.57;;;4.00;99.90;;;;;;4982368;28;20471;-82
2022/02/05 08:50:36;;;;;;;517.53;495.73;;;3.90;99.90;;;;;;5053845;28;20455;-81
2022/02/05 08:53:20;;;;;;;508.13;488.20;;;4.10;99.90;;;;;;5051683;28;20452;-82
2022/02/05 08:55:48;;;;;;;508.90;488.00;;;4.30;99.90;;;;;;5056992;28;20470;-80
2022/02/05 08:58:17;;;;;;;498.60;479.10;;;4.30;99.90;;;;;;5059722;28;20455;-83
2022/02/05 09:00:47;;;;;;;502.40;482.37;;;4.30;99.90;;;;;;5059484;28;20487;-81
2022/02/05 09:03:26;;;;;;;493.00;473.70;;;4.40;99.90;;;;;;5058633;28;20510;-83
2022/02/05 09:05:53;;;;;;;461.77;443.40;;;4.50;99.90;;;;;;5037328;28;20468;-83
2022/02/05 09:08:25;;;;;;;442.50;426.40;;;4.60;99.90;;;;;;5039835;28;20448;-82
2022/02/05 09:11:00;;;;;;;448.77;431.17;;;4.50;99.90;;;;;;5056078;28;20805;-83
2022/02/05 09:13:40;;;;;;;403.40;388.37;;;4.60;99.90;;;;;;5055572;28;21181;-82
2022/02/05 09:16:09;;;;;;;434.23;417.47;;;4.50;99.90;;;;;;5056209;28;20810;-81
2022/02/05 09:18:37;;;;;;;426.37;411.17;;;4.60;99.90;;;;;;5055294;28;20454;-82
2022/02/05 09:21:10;;;;;;;417.53;401.30;;;4.60;99.90;;;;;;5055550;28;20458;-81
2022/02/05 09:23:41;;;;;;;377.03;363.63;;;4.80;99.90;;;;;;5054712;28;20534;-82
2022/02/05 09:26:12;;;;;;;368.30;355.20;;;4.70;99.90;;;;;;5055339;28;20486;-82
2022/02/05 09:28:47;;;;;;;422.70;406.70;;;4.90;99.90;;;;;;5053020;28;20470;-82
2022/02/05 09:31:26;;;;;;;412.63;396.27;;;5.00;99.90;;;;;;5054350;28;20499;-82
2022/02/05 09:36:42;;;;;;;248.53;239.83;;;5.20;99.90;;;;;;5053057;28;20479;-82
2022/02/05 09:39:10;;;;;;;250.40;241.63;;;5.30;99.90;;;;;;5053485;28;20482;-82
2022/02/05 09:41:42;;;;;;;264.63;255.43;;;5.30;99.90;;;;;;5053104;28;20551;-81
2022/02/05 09:44:11;;;;;;;180.43;173.83;;;5.30;99.90;;;;;;5052199;28;20482;-82
2022/02/05 09:46:39;;;;;;;182.50;175.17;;;5.40;99.90;;;;;;5053042;28;20459;-81
2022/02/05 09:49:22;;;;;;;165.20;158.73;;;5.50;99.90;;;;;;5053864;28;20994;-81
2022/02/05 09:52:06;;;;;;;78.00;74.70;;;5.60;99.90;;;;;;5039167;28;20459;-82
2022/02/05 09:54:35;;;;;;;126.67;121.00;;;5.60;99.90;;;;;;5052957;28;20475;-82
2022/02/05 09:57:10;;;;;;;100.53;96.63;;;5.80;99.90;;;;;;5053445;28;20603;-82
2022/02/05 10:00:15;;;;;;;85.00;80.47;;;6.00;99.90;;;;;;5054176;28;21157;-83
2022/02/05 10:02:57;;;;;;;47.93;44.67;;;6.00;99.90;;;;;;5048227;28;21007;-82
2022/02/05 10:05:49;;;;;;;20.73;19.00;;;6.30;99.90;;;;;;5053302;28;20832;-83
2022/02/05 10:08:28;;;;;;;19.77;17.83;;;6.40;99.90;;;;;;5052434;28;20451;-81
2022/02/05 10:11:00;;;;;;;20.83;18.83;;;6.60;99.90;;;;;;5053591;28;20451;-82
2022/02/05 10:13:31;;;;;;;31.97;21.87;;;6.70;99.90;;;;;;5050749;28;20443;-83
2022/02/05 10:16:26;;;;;;;14.00;10.77;;;7.00;99.90;;;;;;5053748;28;20463;-82
2022/02/05 10:19:18;;;;;;;17.00;6.23;;;7.00;99.90;;;;;;5046844;28;20459;-82
2022/02/05 10:25:15;;;;;;;21.00;5.97;;;7.10;97.70;;;;;;5028663;28;20574;-82
2022/02/05 10:27:43;;;;;;;16.97;5.93;;;7.40;97.10;;;;;;5053254;28;20466;-82
2022/02/05 10:30:19;;;;;;;16.23;5.63;;;7.30;96.50;;;;;;5052674;28;21025;-83
2022/02/05 10:32:50;;;;;;;13.77;4.73;;;7.40;96.30;;;;;;5058903;28;20458;-82
2022/02/05 10:35:49;;;;;;;18.13;5.97;;;7.30;95.10;;;;;;5061842;28;20677;-81
2022/02/05 10:38:37;;;;;;;20.60;5.80;;;7.30;94.50;;;;;;5061290;28;20526;-82
2022/02/05 10:49:50;;;;;;;14.70;4.73;;;9.00;90.20;;;;;;4971169;22;20492;-83
2022/02/05 10:52:30;;;;;;;17.77;6.60;;;9.00;86.60;;;;;;5042709;28;20448;-83
2022/02/05 10:55:06;;;;;;;31.50;5.53;;;9.50;86.30;;;;;;5052342;28;20470;-82
2022/02/05 10:57:39;;;;;;;16.20;4.80;;;9.80;80.90;;;;;;5061918;28;20506;-82
2022/02/05 11:06:20;;;;;;;18.00;4.40;;;8.30;81.20;;;;;;5045314;28;20527;-83
2022/02/05 11:08:49;;;;;;;15.73;6.40;;;8.60;79.20;;;;;;5055619;28;20467;-83
2022/02/05 11:20:28;;;;;;;15.37;5.27;;;9.50;74.10;;;;;;5050616;28;20462;-85
2022/02/05 11:23:06;;;;;;;11.23;4.30;;;9.60;72.50;;;;;;5067227;28;20458;-82
2022/02/05 11:25:38;;;;;;;12.63;4.40;;;9.60;71.60;;;;;;5066739;28;20878;-80
2022/02/05 11:28:32;;;;;;;12.40;4.53;;;9.70;70.50;;;;;;5067974;28;20501;-82
2022/02/05 11:31:15;;;;;;;16.83;4.87;;;9.70;69.70;;;;;;5059892;28;20452;-82
2022/02/05 11:34:22;;;;;;;11.73;3.87;;;9.60;70.50;;;;;;5068824;28;20443;-81
2022/02/05 11:37:08;;;;;;;11.97;4.53;;;9.40;71.20;;;;;;5068883;28;20503;-81
2022/02/05 11:39:50;;;;;;;12.07;6.10;;;8.40;73.30;;;;;;5070478;28;20451;-81
2022/02/05 11:42:36;;;;;;;15.30;4.00;;;8.10;76.20;;;;;;5060284;28;20447;-81
2022/02/05 11:45:39;;;;;;;11.13;4.80;;;8.10;76.80;;;;;;5068674;28;20475;-81
2022/02/05 11:48:35;;;;;;;14.33;5.30;;;8.60;75.10;;;;;;5068975;28;20534;-81
2022/02/05 11:51:17;;;;;;;11.00;4.70;;;9.60;69.70;;;;;;5068732;28;20454;-81
2022/02/05 11:54:17;;;;;;;12.63;4.77;;;9.60;66.90;;;;;;5067571;28;20423;-80
2022/02/05 11:57:00;;;;;;;14.93;4.33;;;9.40;66.80;;;;;;5067427;28;20549;-82
2022/02/05 12:00:10;;;;;;;10.60;4.03;;;8.80;69.00;;;;;;5065847;28;20473;-81
2022/02/05 12:02:46;;;;;;;11.13;4.40;;;8.40;70.70;;;;;;5068855;28;20459;-81
2022/02/05 12:05:14;;;;;;;13.13;4.87;;;8.20;73.90;;;;;;5067288;28;21039;-81
2022/02/05 12:07:59;;;;;;;11.13;4.80;;;8.30;71.10;;;;;;5068973;28;20451;-82
2022/02/05 12:10:40;;;;;;;14.20;4.77;;;8.70;72.40;;;;;;5069984;28;20463;-82
2022/02/05 12:13:14;;;;;;;13.30;5.70;;;8.70;71.20;;;;;;5070012;28;20447;-82
2022/02/05 12:15:44;;;;;;;14.77;6.27;;;8.80;69.00;;;;;;5069142;28;20462;-83
2022/02/05 12:21:10;;;;;;;11.57;3.60;;;8.40;68.70;;;;;;5069742;28;20474;-82
2022/02/05 12:27:57;;;;;;;;;;;;;;;;;;;;;
2022/02/05 12:30:38;;;;;;;10.23;5.80;;;8.20;70.30;;;;;;5065129;28;20443;-81
2022/02/05 12:33:11;;;;;;;18.37;4.63;;;8.50;68.70;;;;;;5068595;28;20481;-81
2022/02/05 12:35:50;;;;;;;9.67;3.70;;;8.40;69.50;;;;;;5069904;28;20521;-82
2022/02/05 12:38:21;;;;;;;17.70;4.60;;;8.40;70.30;;;;;;5068871;28;20467;-81
2022/02/05 12:40:49;;;;;;;11.70;4.47;;;8.80;69.80;;;;;;5068170;28;20570;-81
2022/02/05 12:43:19;;;;;;;16.87;3.87;;;8.70;68.20;;;;;;5068989;28;20448;-81
2022/02/05 12:45:53;;;;;;;15.90;3.67;;;8.90;68.30;;;;;;5067176;28;20471;-81
2022/02/05 12:48:31;;;;;;;10.70;3.47;;;9.50;66.60;;;;;;5067774;28;20834;-83
2022/02/05 12:51:13;;;;;;;17.37;4.03;;;10.30;62.40;;;;;;5065097;28;20451;-81
2022/02/05 12:53:43;;;;;;;10.63;2.60;;;10.80;56.60;;;;;;5066684;28;20505;-81
2022/02/05 12:59:11;;;;;;;8.37;3.73;;;10.70;54.00;;;;;;5068055;28;21046;-81
2022/02/05 13:01:41;;;;;;;7.00;2.87;;;10.90;54.70;;;;;;5068052;28;20788;-81
2022/02/05 13:04:13;;;;;;;10.67;3.33;;;10.80;53.30;;;;;;5068745;28;20471;-81
2022/02/05 13:06:40;;;;;;;10.23;2.60;;;10.80;51.50;;;;;;5066370;28;20447;-81
2022/02/05 13:09:19;;;;;;;8.33;3.23;;;10.60;50.80;;;;;;5064196;28;20447;-82
2022/02/05 13:12:03;;;;;;;;;;;;;;;;;;;;;
2022/02/05 13:15:00;;;;;;;8.30;2.40;;;10.30;50.90;;;;;;5068801;28;21072;-82
2022/02/05 13:17:39;;;;;;;9.23;2.60;;;10.10;50.70;;;;;;5069685;28;20471;-81
2022/02/05 13:27:43;;;;;;;10.80;3.60;;;9.70;51.60;;;;;;5065294;28;20512;-82
2022/02/05 13:49:36;;;;;;;14.80;2.40;;;8.80;54.50;;;;;;5024766;28;20445;-82
2022/02/05 13:59:28;;;;;;;9.27;3.00;;;8.90;55.90;;;;;;4942834;28;20480;-84
2022/02/05 14:02:54;;;;;;;10.70;2.40;;;8.80;56.60;;;;;;5007546;28;20507;-83
2022/02/05 14:09:39;;;;;;;;;;;;;;;;;;;;;
2022/02/05 14:12:35;;;;;;;7.53;2.50;;;8.60;58.10;;;;;;5058552;28;20443;-83
2022/02/05 14:15:54;;;;;;;;;;;;;;;;;;;;;
2022/02/05 14:19:12;;;;;;;14.67;2.63;;;9.00;55.70;;;;;;4941919;28;20518;-83
2022/02/05 14:25:35;;;;;;;8.50;2.17;;;8.90;54.70;;;;;;4917059;29;20482;-81
2022/02/05 15:00:06;;;;;;;8.20;2.43;;;8.40;52.40;;;;;;4885965;29;20450;-84
2022/02/05 15:13:09;;;;;;;8.97;2.57;;;8.40;52.20;;;;;;4980641;28;20450;-83
2022/02/05 15:22:24;;;;;;;7.00;2.50;;;8.60;52.00;;;;;;4964543;29;20530;-83
2022/02/05 15:28:41;;;;;;;10.43;2.10;;;8.60;52.10;;;;;;5004784;28;20489;-82
2022/02/05 15:31:49;;;;;;;14.10;3.07;;;8.60;52.30;;;;;;4869490;29;20993;-83
2022/02/05 15:38:06;;;;;;;9.13;3.33;;;8.70;55.30;;;;;;4852944;29;20556;-82
2022/02/05 15:47:14;;;;;;;13.30;2.90;;;8.50;54.30;;;;;;4943563;28;20474;-82
2022/02/05 15:56:41;;;;;;;9.20;2.60;;;8.10;55.10;;;;;;4925379;29;20481;-82
2022/02/05 16:02:57;;;;;;;7.03;2.43;;;7.90;55.70;;;;;;4983784;28;20451;-82
2022/02/05 16:05:38;;;;;;;15.10;2.60;;;7.80;56.60;;;;;;4985782;28;20513;-83
2022/02/05 16:08:46;;;;;;;12.07;2.57;;;7.60;56.00;;;;;;4982575;28;20463;-83
2022/02/05 16:11:45;;;;;;;7.50;2.20;;;7.60;57.80;;;;;;4977998;28;20459;-83
2022/02/05 16:14:48;;;;;;;7.17;2.40;;;7.50;58.10;;;;;;4981323;28;20586;-83
2022/02/05 16:21:03;;;;;;;6.93;2.07;;;7.30;59.20;;;;;;4906788;29;20461;-83
2022/02/05 16:23:52;;;;;;;12.10;2.70;;;7.30;59.60;;;;;;4973159;28;20470;-83
2022/02/05 16:32:25;;;;;;;10.17;3.00;;;7.00;60.80;;;;;;4983292;28;20486;-83
2022/02/05 16:44:30;;;;;;;12.23;2.93;;;7.00;60.40;;;;;;4984046;28;20589;-84
2022/02/05 16:47:23;;;;;;;9.63;2.17;;;7.00;59.40;;;;;;4979920;28;20455;-84
2022/02/05 16:50:21;;;;;;;13.33;2.10;;;6.90;60.50;;;;;;4985392;28;20493;-82
2022/02/05 16:56:16;;;;;;;9.03;2.90;;;6.90;61.30;;;;;;4959312;28;20476;-82
2022/02/05 17:02:08;;;;;;;10.40;4.30;;;6.90;61.80;;;;;;4966193;28;20466;-83
2022/02/05 17:08:10;;;;;;;8.20;3.57;;;6.80;61.50;;;;;;4979980;28;20459;-82
2022/02/05 17:11:19;;;;;;;11.17;2.90;;;6.70;62.50;;;;;;4983085;28;20451;-82
2022/02/05 17:14:09;;;;;;;6.13;2.20;;;6.70;62.40;;;;;;4976854;28;20446;-82
2022/02/05 17:20:22;;;;;;;10.67;2.90;;;6.20;64.90;;;;;;4980675;28;20481;-83
2022/02/05 17:23:00;;;;;;;5.37;2.10;;;6.20;65.60;;;;;;4982386;28;20830;-82
2022/02/05 17:25:46;;;;;;;9.50;2.83;;;6.20;65.80;;;;;;4964743;28;20807;-82
2022/02/05 17:28:35;;;;;;;14.70;2.73;;;6.30;65.30;;;;;;4982663;28;20514;-83
2022/02/05 17:31:20;;;;;;;9.60;2.50;;;6.20;65.60;;;;;;4980851;28;20482;-83
2022/02/05 17:43:16;;;;;;;9.53;1.93;;;6.30;65.70;;;;;;4981121;28;20478;-83
2022/02/05 17:46:17;;;;;;;11.63;3.03;;;6.30;66.40;;;;;;4982537;28;20490;-83
2022/02/05 17:49:06;;;;;;;11.30;2.90;;;6.30;66.70;;;;;;4982804;28;20459;-83
2022/02/05 18:00:42;;;;;;;8.63;2.63;;;6.10;69.00;;;;;;4978055;28;20822;-82
2022/02/05 18:03:47;;;;;;;10.97;2.90;;;6.20;69.10;;;;;;4982925;28;21026;-83
2022/02/05 18:06:41;;;;;;;9.57;1.90;;;6.30;67.80;;;;;;4973650;28;20965;-83
2022/02/05 18:10:09;;;;;;;9.53;2.40;;;6.30;67.80;;;;;;4983159;28;20481;-83
2022/02/05 18:13:59;;;;;;;9.90;2.53;;;6.50;67.00;;;;;;4980615;28;20459;-83
2022/02/05 18:16:56;;;;;;;7.50;3.17;;;6.30;67.80;;;;;;4963866;29;20459;-82
2022/02/05 18:19:46;;;;;;;10.67;3.50;;;6.30;68.70;;;;;;4975016;28;20459;-82
2022/02/05 18:22:16;;;;;;;13.17;3.30;;;6.20;68.40;;;;;;4980247;28;20459;-83
2022/02/05 18:32:06;;;;;;;;;;;;;;;;;;;;;
2022/02/05 18:40:54;;;;;;;23.37;5.00;;;6.60;69.20;;;;;;4983529;28;20446;-82
2022/02/05 18:43:26;;;;;;;6.57;3.07;;;6.60;68.70;;;;;;4983680;28;20948;-82
2022/02/05 18:45:59;;;;;;;11.67;4.13;;;6.60;67.60;;;;;;4982890;28;20865;-83
2022/02/05 18:48:33;;;;;;;8.10;3.00;;;6.60;67.50;;;;;;4984480;28;20455;-81
2022/02/05 18:51:05;;;;;;;8.73;3.00;;;6.60;67.90;;;;;;4985376;28;20455;-83
2022/02/05 18:53:32;;;;;;;11.30;2.87;;;6.70;68.00;;;;;;4983899;28;20455;-83
2022/02/05 18:56:05;;;;;;;7.83;2.53;;;6.70;68.00;;;;;;4982540;28;20856;-82
2022/02/05 18:58:52;;;;;;;7.57;2.63;;;6.70;67.60;;;;;;4982787;28;20474;-82
2022/02/05 19:01:40;;;;;;;6.60;3.13;;;6.70;67.40;;;;;;4982832;28;20469;-83
2022/02/05 19:10:03;;;;;;;10.73;3.03;;;6.70;67.20;;;;;;4982094;28;20471;-83
2022/02/05 19:13:26;;;;;;;9.23;2.90;;;6.90;66.00;;;;;;4980728;28;20442;-82
2022/02/05 19:16:12;;;;;;;16.73;3.37;;;6.80;67.00;;;;;;4982997;28;20479;-82
2022/02/05 19:18:41;;;;;;;9.23;2.47;;;7.00;67.40;;;;;;4981203;28;20536;-82
2022/02/05 19:21:14;;;;;;;9.80;2.73;;;6.90;66.90;;;;;;4982844;28;20454;-82
2022/02/05 19:24:01;;;;;;;10.70;3.23;;;6.90;67.40;;;;;;4983033;28;20466;-82
2022/02/05 19:26:33;;;;;;;8.40;3.30;;;6.90;67.40;;;;;;4982386;28;20466;-83
2022/02/05 19:29:08;;;;;;;10.30;2.87;;;6.90;67.50;;;;;;4963007;28;20452;-83
2022/02/05 19:31:44;;;;;;;12.23;2.70;;;6.90;67.80;;;;;;4981370;28;20455;-84
2022/02/05 19:34:17;;;;;;;13.33;3.10;;;6.90;67.40;;;;;;4980738;28;20544;-82